Aeroporto :
LOGIN :

Iscrizione | Disclaimer

   EN    FR    IT 

 










Sommario :    VFR   VFR Marginale   IFR   IFR Intensivo   IFR Molto Intensivo
Visibilità : 
Base nubi : 
>= 8 km
>= 3000ft
5 / 8 km
1000 / 3000 ft
1500m / 5 km
500 / 1000 ft
800 / 1500m
200 / 500 ft
< 800m
< 200 ft
Simboli :   Temporali  Nebbia  Neve Forte  Precipitazioni Forti  Vento > 20 kt
SIGMETs :   Varie  Temporali  Ghiacco  Turbolenza  Onda orograficha  Ceneri Vulcaniche






- Altitudine del aeroporto : 313 ft
- Codice IATA : LEH


LFOH - Le Havre Octeville

ULTIMO METAR :
  • 231900Z AUTO 30006KT CAVOK 14/10 Q1017

METARs OBSOLETI :
  • 231830Z AUTO 31007KT CAVOK 14/10 Q1017
  • 231800Z AUTO 31006KT CAVOK 14/09 Q1017 TEMPO BKN004
  • 231730Z AUTO 31005KT CAVOK 14/10 Q1017 TEMPO BKN004
  • 231700Z AUTO 33006KT CAVOK 14/10 Q1016 TEMPO BKN004
  • 231630Z AUTO 33009KT CAVOK 14/10 Q1016 TEMPO BKN004
  • 231600Z AUTO 32010KT 9999 FEW006 SCT078 BKN092 15/10 Q1016 TEMPO BKN004
  • 231530Z AUTO 32010KT 9999 BKN005 BKN010 BKN015 15/13 Q1016 BECMG 26008KT
  • 231500Z AUTO 31008KT 280V340 9999 BKN006 BKN010 OVC076 16/13 Q1016 NOSIG
  • 231430Z AUTO 30007KT 250V320 9999 BKN006 OVC070 15/13 Q1016 BECMG NSC

TAF AMD TAF LFOH
Valido dal 23 a 15 ore il 24 a 12 ore UTC


231546Z 2315/2412 32008KT 9999 BKN008
TEMPO 2315/2322 BKN004
ATIS : +33 2 35 54 64 93



MetMap, La meteo Aeronautica in un colpo d'occhio ! - Copyright ORBIFLY Dicembre 2007 - Disclaimer

ORBIFLY MET'MAP TEAM :

Programmazione e sviluppo : Alexandra Zaïnal
Concezione : Baudouin d'Aumeries
Supporto tecnico e logistico : Manuel Goepfert
Aiuto : Marc-Olivier Méhu
Aiuto per la traduzione : Arnaldo La Scala




FONTI E CREDITI :

   NOAA